Weather at Mobile Downtown Airport

Public forecast

Using degrees Fahrenheit for public forecast. Weather courtesy of forecast.io.

Current aviation weather report (METAR) for Mobile Downtown Airport

Retrieved 2020/09/20 03:53 UTC (22 minutes ago):

KBFM 200353Z AUTO 07018G24KT 10SM -RA SCT014 SCT090 BKN110 22/21 A3003 RMK AO2 SLP169 P0001 T02170206

Aviation forecast (TAF) for Mobile Downtown Airport

Retrieved 2020-09-20 00:28 UTC (4 hours ago):

TAF KBFM 192326Z 2000/2024 05014KT P6SM -RA VCSH SCT016 OVC050 FM200400 07017KT 5SM -RA VCSH SCT015 OVC030 FM201500 06017KT P6SM VCSH SCT007 OVC016 PROB30 2016/2022 4SM -SHRA BKN007 OVC015